createdAt,value
2017-09-07T00:00:45.362Z,18.5
2017-09-07T00:01:47.080Z,18.6
2017-09-07T00:02:48.797Z,18.5
2017-09-07T00:03:50.554Z,18.5
2017-09-07T00:04:52.246Z,18.4
2017-09-07T00:05:53.966Z,18.4
2017-09-07T00:06:55.661Z,18.5
2017-09-07T00:07:57.400Z,18.5
2017-09-07T00:08:59.130Z,18.4
2017-09-07T00:10:00.839Z,18.5
2017-09-07T00:11:02.556Z,18.5
2017-09-07T00:12:04.271Z,18.5
2017-09-07T00:13:05.969Z,18.5
2017-09-07T00:14:07.687Z,18.4
2017-09-07T00:15:09.399Z,18.4
2017-09-07T00:16:11.091Z,18.4
2017-09-07T00:17:12.795Z,18.4
2017-09-07T00:18:14.488Z,18.4
2017-09-07T00:19:16.196Z,18.3
2017-09-07T00:20:17.891Z,18.4
2017-09-07T00:21:19.592Z,18.3
2017-09-07T00:22:21.294Z,18.3
2017-09-07T00:23:22.982Z,18.4
2017-09-07T00:24:24.698Z,18.3
2017-09-07T00:25:26.389Z,18.2
2017-09-07T00:26:28.108Z,18.1
2017-09-07T00:27:29.833Z,18.1
2017-09-07T00:28:31.523Z,18.1
2017-09-07T00:29:33.212Z,18.0
2017-09-07T00:30:34.900Z,18.1
2017-09-07T00:31:36.598Z,18.2
2017-09-07T00:32:38.292Z,18.2
2017-09-07T00:33:39.988Z,18.1
2017-09-07T00:34:41.697Z,17.9
2017-09-07T00:35:43.402Z,18.0
2017-09-07T00:36:45.090Z,17.9
2017-09-07T00:37:46.800Z,17.7
2017-09-07T00:38:48.496Z,17.6
2017-09-07T00:39:50.182Z,17.5
2017-09-07T00:40:51.903Z,17.5
2017-09-07T00:41:53.620Z,17.4
2017-09-07T00:42:55.328Z,17.4
2017-09-07T00:43:57.020Z,17.4
2017-09-07T00:44:58.733Z,17.4
2017-09-07T00:46:00.433Z,17.5
2017-09-07T00:47:02.108Z,17.5
2017-09-07T00:48:03.805Z,17.5
2017-09-07T00:49:05.506Z,17.5
2017-09-07T00:50:07.209Z,17.6
2017-09-07T00:51:08.902Z,17.6
2017-09-07T00:52:10.622Z,17.6
2017-09-07T00:53:12.326Z,17.6
2017-09-07T00:54:14.039Z,17.7
2017-09-07T00:55:16.612Z,17.7
2017-09-07T00:56:18.325Z,17.7
2017-09-07T00:57:20.015Z,17.9
2017-09-07T00:58:21.715Z,17.8
2017-09-07T00:59:23.445Z,17.8
2017-09-07T01:00:25.180Z,17.8
2017-09-07T01:01:26.901Z,17.8
2017-09-07T01:02:28.609Z,17.7
2017-09-07T01:03:30.354Z,17.8
2017-09-07T01:04:32.072Z,17.8
2017-09-07T01:05:33.779Z,17.8
2017-09-07T01:06:35.491Z,17.9
2017-09-07T01:07:37.189Z,17.9
2017-09-07T01:08:38.918Z,17.8
2017-09-07T01:09:40.632Z,17.8
2017-09-07T01:10:42.328Z,17.8
2017-09-07T01:11:44.023Z,17.8
2017-09-07T01:12:45.707Z,17.7
2017-09-07T01:13:47.421Z,17.7
2017-09-07T01:14:49.205Z,17.7
2017-09-07T01:15:50.847Z,17.7
2017-09-07T01:16:52.544Z,17.7
2017-09-07T01:17:54.250Z,17.7
2017-09-07T01:18:55.945Z,17.7
2017-09-07T01:19:57.640Z,17.7
2017-09-07T01:20:59.364Z,17.6
2017-09-07T01:22:01.058Z,17.7
2017-09-07T01:23:02.788Z,17.7
2017-09-07T01:24:04.485Z,17.7
2017-09-07T01:25:06.191Z,17.7
2017-09-07T01:26:07.913Z,17.8
2017-09-07T01:27:09.626Z,17.9
2017-09-07T01:28:11.322Z,17.8
2017-09-07T01:29:13.039Z,17.8
2017-09-07T01:30:14.731Z,17.9
2017-09-07T01:31:16.445Z,17.9
2017-09-07T01:32:18.173Z,17.9
2017-09-07T01:33:19.867Z,17.9
2017-09-07T01:34:21.581Z,17.9
2017-09-07T01:35:23.290Z,18.0
2017-09-07T01:36:25.030Z,18.0
2017-09-07T01:37:26.720Z,17.9
2017-09-07T01:38:28.473Z,17.8
2017-09-07T01:39:30.164Z,17.9
2017-09-07T01:40:31.869Z,17.7
2017-09-07T01:41:33.559Z,17.6
2017-09-07T01:42:35.241Z,17.7
2017-09-07T01:43:36.945Z,17.7
2017-09-07T01:44:38.690Z,17.7
2017-09-07T01:45:40.382Z,17.6
2017-09-07T01:46:42.079Z,17.7
2017-09-07T01:47:43.785Z,17.7
2017-09-07T01:48:45.481Z,17.5
2017-09-07T01:49:47.178Z,17.7
2017-09-07T01:50:48.877Z,17.6
2017-09-07T01:51:50.566Z,17.6
2017-09-07T01:52:52.252Z,17.6
2017-09-07T01:53:53.974Z,17.6
2017-09-07T01:54:55.647Z,17.6
2017-09-07T01:55:57.361Z,17.5
2017-09-07T01:56:59.090Z,17.5
2017-09-07T01:58:00.791Z,17.4
2017-09-07T01:59:02.513Z,17.5
2017-09-07T02:00:04.222Z,17.4
2017-09-07T02:01:05.983Z,17.4
2017-09-07T02:02:07.677Z,17.4
2017-09-07T02:03:09.397Z,17.4
2017-09-07T02:04:11.076Z,17.4
2017-09-07T02:05:12.779Z,17.5
2017-09-07T02:06:14.494Z,17.5
2017-09-07T02:07:17.128Z,17.5
2017-09-07T02:08:18.897Z,17.6
2017-09-07T02:09:20.610Z,17.5
2017-09-07T02:10:22.305Z,17.5
2017-09-07T02:11:23.992Z,17.4
2017-09-07T02:12:25.656Z,17.4
2017-09-07T02:13:27.330Z,17.5
2017-09-07T02:14:29.022Z,17.4
2017-09-07T02:15:30.713Z,17.4
2017-09-07T02:16:32.468Z,17.3
2017-09-07T02:17:34.194Z,17.3
2017-09-07T02:18:35.899Z,17.3
2017-09-07T02:19:37.596Z,17.3
2017-09-07T02:20:39.369Z,17.3
2017-09-07T02:21:41.069Z,17.3
2017-09-07T02:22:42.754Z,17.3
2017-09-07T02:23:44.456Z,17.4
2017-09-07T02:24:46.159Z,17.2
2017-09-07T02:25:47.849Z,17.2
2017-09-07T02:26:49.542Z,17.1
2017-09-07T02:27:51.254Z,17.2
2017-09-07T02:28:52.937Z,17.1
2017-09-07T02:29:54.647Z,17.1
2017-09-07T02:30:56.340Z,17.0
2017-09-07T02:31:58.029Z,17.0
2017-09-07T02:32:59.740Z,17.1
2017-09-07T02:34:01.429Z,17.1
2017-09-07T02:35:03.130Z,17.1
2017-09-07T02:36:04.833Z,17.1
2017-09-07T02:37:06.527Z,17.2
2017-09-07T02:38:08.243Z,17.2
2017-09-07T02:39:09.948Z,17.2
2017-09-07T02:40:11.647Z,17.1
2017-09-07T02:41:13.347Z,17.0
2017-09-07T02:42:15.046Z,17.1
2017-09-07T02:43:16.741Z,17.1
2017-09-07T02:44:18.450Z,17.1
2017-09-07T02:45:20.181Z,17.1
2017-09-07T02:46:21.904Z,17.1
2017-09-07T02:47:23.577Z,17.1
2017-09-07T02:48:25.301Z,17.0
2017-09-07T02:49:26.984Z,17.1
2017-09-07T02:50:28.682Z,17.0
2017-09-07T02:51:30.371Z,17.0
2017-09-07T02:52:32.157Z,17.0
2017-09-07T02:53:33.878Z,17.0
2017-09-07T02:54:35.616Z,17.0
2017-09-07T02:55:37.302Z,17.0
2017-09-07T02:56:39.040Z,17.1
2017-09-07T02:57:40.713Z,17.1
2017-09-07T02:58:42.422Z,17.3
2017-09-07T02:59:44.120Z,17.2
2017-09-07T03:00:45.814Z,17.2
2017-09-07T03:01:47.503Z,17.3
2017-09-07T03:02:49.151Z,17.3
2017-09-07T03:03:50.858Z,17.3
2017-09-07T03:04:52.555Z,17.3
2017-09-07T03:05:54.243Z,17.3
2017-09-07T03:06:55.944Z,17.2
2017-09-07T03:07:57.623Z,17.3
2017-09-07T03:08:59.336Z,17.3
2017-09-07T03:10:01.042Z,17.3
2017-09-07T03:11:02.738Z,17.3
2017-09-07T03:12:04.457Z,17.3
2017-09-07T03:13:06.158Z,17.3
2017-09-07T03:14:07.889Z,17.2
2017-09-07T03:15:09.608Z,17.2
2017-09-07T03:16:11.342Z,17.3
2017-09-07T03:17:13.048Z,17.2
2017-09-07T03:18:15.699Z,17.2
2017-09-07T03:19:17.379Z,17.2
2017-09-07T03:20:19.080Z,17.2
2017-09-07T03:21:20.771Z,17.2
2017-09-07T03:22:22.487Z,17.2
2017-09-07T03:23:24.200Z,17.2
2017-09-07T03:24:25.920Z,17.2
2017-09-07T03:25:27.626Z,17.1
2017-09-07T03:26:29.329Z,17.0
2017-09-07T03:27:31.049Z,17.1
2017-09-07T03:28:32.842Z,17.1
2017-09-07T03:29:34.555Z,17.1
2017-09-07T03:30:36.246Z,17.1
2017-09-07T03:31:37.944Z,17.1
2017-09-07T03:32:39.642Z,17.1
2017-09-07T03:33:41.319Z,17.1
2017-09-07T03:34:43.023Z,17.1
2017-09-07T03:35:44.753Z,17.1
2017-09-07T03:36:46.462Z,17.0
2017-09-07T03:37:48.186Z,17.0
2017-09-07T03:38:49.874Z,17.1
2017-09-07T03:39:51.572Z,17.0
2017-09-07T03:40:53.273Z,17.1
2017-09-07T03:41:54.990Z,17.1
2017-09-07T03:42:56.699Z,17.1
2017-09-07T03:43:58.377Z,17.0
2017-09-07T03:45:00.085Z,17.0
2017-09-07T03:46:01.772Z,17.0
2017-09-07T03:47:03.465Z,16.9
2017-09-07T03:48:05.177Z,17.0
2017-09-07T03:49:06.892Z,17.0
2017-09-07T03:50:08.583Z,17.0
2017-09-07T03:51:11.137Z,16.9
2017-09-07T03:52:12.845Z,16.8
2017-09-07T03:53:14.564Z,16.9
2017-09-07T03:54:16.250Z,16.8
2017-09-07T03:55:17.951Z,17.0
2017-09-07T03:56:19.648Z,17.0
2017-09-07T03:57:21.341Z,16.9
2017-09-07T03:58:23.050Z,16.9
2017-09-07T03:59:24.743Z,17.0
2017-09-07T04:00:26.425Z,17.1
2017-09-07T04:01:28.127Z,16.9
2017-09-07T04:02:29.820Z,17.0
2017-09-07T04:03:31.513Z,17.0
2017-09-07T04:04:33.303Z,17.0
2017-09-07T04:05:35.028Z,17.0
2017-09-07T04:06:36.737Z,16.9
2017-09-07T04:07:38.421Z,16.9
2017-09-07T04:08:40.101Z,16.8
2017-09-07T04:09:41.819Z,16.8
2017-09-07T04:10:43.525Z,16.8
2017-09-07T04:11:45.200Z,16.9
2017-09-07T04:12:46.908Z,16.8
2017-09-07T04:13:48.606Z,16.8
2017-09-07T04:14:50.502Z,16.8
2017-09-07T04:15:52.195Z,16.7
2017-09-07T04:16:53.907Z,16.7
2017-09-07T04:17:55.597Z,16.7
2017-09-07T04:18:57.280Z,16.8
2017-09-07T04:19:58.980Z,16.7
2017-09-07T04:21:01.638Z,16.7
2017-09-07T04:22:03.355Z,16.8
2017-09-07T04:23:05.057Z,16.8
2017-09-07T04:24:06.784Z,16.8
2017-09-07T04:25:08.443Z,16.8
2017-09-07T04:26:10.130Z,16.9
2017-09-07T04:27:11.850Z,16.7
2017-09-07T04:28:13.544Z,16.7
2017-09-07T04:29:15.218Z,16.7
2017-09-07T04:30:16.959Z,16.7
2017-09-07T04:31:18.710Z,16.9
2017-09-07T04:32:20.412Z,16.8
2017-09-07T04:33:22.128Z,16.8
2017-09-07T04:34:23.808Z,16.9
2017-09-07T04:35:25.499Z,16.8
2017-09-07T04:36:27.204Z,16.9
2017-09-07T04:37:28.910Z,16.9
2017-09-07T04:38:30.613Z,16.9
2017-09-07T04:39:32.269Z,16.9
2017-09-07T04:40:34.055Z,17.0
2017-09-07T04:41:35.758Z,16.9
2017-09-07T04:42:37.458Z,17.0
2017-09-07T04:43:39.155Z,17.0
2017-09-07T04:44:40.840Z,16.9
2017-09-07T04:45:42.542Z,17.0
2017-09-07T04:46:44.247Z,16.9
2017-09-07T04:47:45.930Z,17.0
2017-09-07T04:48:47.624Z,16.9
2017-09-07T04:49:49.312Z,17.0
2017-09-07T04:50:50.997Z,17.0
2017-09-07T04:51:52.719Z,16.9
2017-09-07T04:52:54.420Z,16.9
2017-09-07T04:53:56.128Z,16.8
2017-09-07T04:54:57.815Z,16.8
2017-09-07T04:55:59.488Z,16.8
2017-09-07T04:57:01.201Z,16.8
2017-09-07T04:58:02.917Z,16.8
2017-09-07T04:59:04.599Z,16.8
2017-09-07T05:00:06.299Z,16.9
2017-09-07T05:01:07.993Z,16.9
2017-09-07T05:02:09.693Z,16.9
2017-09-07T05:03:11.390Z,16.7
2017-09-07T05:04:13.096Z,16.8
2017-09-07T05:05:14.793Z,16.9
2017-09-07T05:06:16.486Z,16.8
2017-09-07T05:07:18.188Z,16.8
2017-09-07T05:08:19.883Z,16.8
2017-09-07T05:09:21.574Z,16.8
2017-09-07T05:10:23.275Z,16.8
2017-09-07T05:11:24.982Z,16.8
2017-09-07T05:12:26.684Z,16.9
2017-09-07T05:13:28.372Z,16.8
2017-09-07T05:14:30.059Z,16.9
2017-09-07T05:15:31.760Z,16.8
2017-09-07T05:16:33.515Z,16.8
2017-09-07T05:17:35.219Z,16.7
2017-09-07T05:18:36.906Z,16.8
2017-09-07T05:19:38.621Z,16.8
2017-09-07T05:20:40.316Z,16.7
2017-09-07T05:21:42.017Z,16.7
2017-09-07T05:22:43.718Z,16.6
2017-09-07T05:23:45.414Z,16.6
2017-09-07T05:24:47.093Z,16.6
2017-09-07T05:25:48.800Z,16.6
2017-09-07T05:26:50.489Z,16.6
2017-09-07T05:27:52.193Z,16.7
2017-09-07T05:28:53.900Z,16.7
2017-09-07T05:29:55.610Z,16.6
2017-09-07T05:30:57.303Z,16.7
2017-09-07T05:31:59.010Z,16.7
2017-09-07T05:33:00.732Z,16.6
2017-09-07T05:34:02.524Z,16.6
2017-09-07T05:35:04.236Z,16.7
2017-09-07T05:36:05.963Z,16.6
2017-09-07T05:37:07.663Z,16.8
2017-09-07T05:38:09.388Z,16.7
2017-09-07T05:39:11.092Z,16.6
2017-09-07T05:40:12.774Z,16.7
2017-09-07T05:41:14.482Z,16.6
2017-09-07T05:42:16.165Z,16.6
2017-09-07T05:43:17.876Z,16.5
2017-09-07T05:44:19.581Z,16.6
2017-09-07T05:45:21.278Z,16.5
2017-09-07T05:46:22.983Z,16.7
2017-09-07T05:47:24.671Z,16.5
2017-09-07T05:48:26.371Z,16.5
2017-09-07T05:49:28.072Z,16.5
2017-09-07T05:50:29.759Z,16.5
2017-09-07T05:51:31.448Z,16.6
2017-09-07T05:52:33.138Z,16.4
2017-09-07T05:53:34.873Z,16.7
2017-09-07T05:54:36.658Z,16.6
2017-09-07T05:55:38.379Z,16.6
2017-09-07T05:56:40.092Z,16.6
2017-09-07T05:57:41.795Z,16.6
2017-09-07T05:58:43.519Z,16.6
2017-09-07T05:59:45.253Z,16.7
2017-09-07T06:00:46.944Z,16.7
2017-09-07T06:01:48.636Z,16.6
2017-09-07T06:02:50.333Z,16.7
2017-09-07T06:03:52.033Z,16.8
2017-09-07T06:04:53.733Z,16.7
2017-09-07T06:05:55.466Z,16.8
2017-09-07T06:06:57.177Z,16.7
2017-09-07T06:07:58.896Z,16.7
2017-09-07T06:09:00.598Z,16.7
2017-09-07T06:10:02.311Z,16.7
2017-09-07T06:11:04.004Z,16.7
2017-09-07T06:12:05.703Z,16.7
2017-09-07T06:13:07.409Z,16.9
2017-09-07T06:14:09.121Z,16.7
2017-09-07T06:15:10.828Z,16.7
2017-09-07T06:16:12.528Z,16.8
2017-09-07T06:17:14.264Z,16.8
2017-09-07T06:18:15.968Z,16.9
2017-09-07T06:19:17.672Z,16.8
2017-09-07T06:20:19.439Z,16.8
2017-09-07T06:21:21.142Z,16.9
2017-09-07T06:22:22.850Z,16.8
2017-09-07T06:23:24.551Z,16.8
2017-09-07T06:24:26.274Z,16.8
2017-09-07T06:25:27.980Z,16.8
2017-09-07T06:26:29.694Z,16.8
2017-09-07T06:27:31.421Z,16.8
2017-09-07T06:28:33.338Z,16.7
2017-09-07T06:29:35.096Z,16.7
2017-09-07T06:30:36.800Z,16.8
2017-09-07T06:31:38.498Z,16.8
2017-09-07T06:32:40.201Z,16.8
2017-09-07T06:33:41.909Z,16.8
2017-09-07T06:34:43.633Z,16.9
2017-09-07T06:35:45.370Z,16.9
2017-09-07T06:36:47.062Z,17.0
2017-09-07T06:37:48.754Z,17.0
2017-09-07T06:38:50.478Z,17.0
2017-09-07T06:39:52.180Z,17.0
2017-09-07T06:40:53.882Z,17.0
2017-09-07T06:41:55.599Z,17.0
2017-09-07T06:42:57.303Z,17.0
2017-09-07T06:43:59.010Z,17.1
2017-09-07T06:45:00.777Z,17.1
2017-09-07T06:46:02.489Z,17.1
2017-09-07T06:47:04.187Z,17.1
2017-09-07T06:48:05.896Z,17.1
2017-09-07T06:49:07.582Z,17.1
2017-09-07T06:50:09.291Z,17.2
2017-09-07T06:51:11.007Z,17.2
2017-09-07T06:52:12.714Z,17.2
2017-09-07T06:53:14.430Z,17.2
2017-09-07T06:54:16.140Z,17.3
2017-09-07T06:55:17.830Z,17.3
2017-09-07T06:56:19.551Z,17.3
2017-09-07T06:57:21.251Z,17.4
2017-09-07T06:58:22.950Z,17.4
2017-09-07T06:59:24.645Z,17.5
2017-09-07T07:00:26.346Z,17.5
2017-09-07T07:01:28.040Z,17.5
2017-09-07T07:02:29.738Z,17.6
2017-09-07T07:03:31.447Z,17.7
2017-09-07T07:04:33.167Z,17.6
2017-09-07T07:05:34.969Z,17.7
2017-09-07T07:06:36.676Z,17.6
2017-09-07T07:07:38.400Z,17.7
2017-09-07T07:08:40.104Z,17.7
2017-09-07T07:09:41.833Z,17.7
2017-09-07T07:10:43.532Z,17.7
2017-09-07T07:11:45.240Z,17.8
2017-09-07T07:12:46.947Z,17.7
2017-09-07T07:13:48.681Z,17.8
2017-09-07T07:14:50.639Z,17.8
2017-09-07T07:15:52.376Z,17.8
2017-09-07T07:16:54.059Z,17.8
2017-09-07T07:17:55.752Z,18.0
2017-09-07T07:18:57.438Z,18.0
2017-09-07T07:19:59.152Z,17.9
2017-09-07T07:21:00.827Z,18.0
2017-09-07T07:22:02.522Z,18.1
2017-09-07T07:23:04.233Z,18.1
2017-09-07T07:24:05.955Z,18.1
2017-09-07T07:25:07.660Z,18.1
2017-09-07T07:26:09.375Z,18.2
2017-09-07T07:27:11.077Z,18.1
2017-09-07T07:28:12.777Z,18.3
2017-09-07T07:29:14.482Z,18.2
2017-09-07T07:30:16.174Z,18.3
2017-09-07T07:31:17.899Z,18.3
2017-09-07T07:32:19.635Z,18.2
2017-09-07T07:33:21.337Z,18.3
2017-09-07T07:34:23.033Z,18.4
2017-09-07T07:35:24.758Z,18.4
2017-09-07T07:36:26.450Z,18.5
2017-09-07T07:37:28.182Z,18.3
2017-09-07T07:38:29.889Z,18.4
2017-09-07T07:39:31.599Z,18.5
2017-09-07T07:40:33.413Z,18.5
2017-09-07T07:41:35.256Z,18.6
2017-09-07T07:42:36.963Z,18.5
2017-09-07T07:43:38.681Z,18.6
2017-09-07T07:44:40.384Z,18.6
2017-09-07T07:45:42.070Z,18.7
2017-09-07T07:46:43.810Z,18.6
2017-09-07T07:47:45.570Z,18.7
2017-09-07T07:48:47.306Z,18.8
2017-09-07T07:49:49.072Z,18.8
2017-09-07T07:50:50.788Z,18.9
2017-09-07T07:51:52.525Z,18.9
2017-09-07T07:52:54.233Z,18.8
2017-09-07T07:53:55.943Z,18.9
2017-09-07T07:54:57.672Z,18.9
2017-09-07T07:55:59.383Z,18.9
2017-09-07T07:57:01.078Z,19.0
2017-09-07T07:58:02.887Z,19.0
2017-09-07T07:59:04.590Z,19.0
2017-09-07T08:00:06.386Z,19.1
2017-09-07T08:01:08.088Z,19.0
2017-09-07T08:02:09.828Z,19.0
2017-09-07T08:03:11.737Z,19.0
2017-09-07T08:04:13.435Z,19.1
2017-09-07T08:05:15.213Z,19.1
2017-09-07T08:06:16.927Z,19.1
2017-09-07T08:07:19.403Z,19.0
2017-09-07T08:08:21.127Z,19.0
2017-09-07T08:09:22.868Z,19.1
2017-09-07T08:10:24.558Z,19.1
2017-09-07T08:11:26.284Z,19.0
2017-09-07T08:12:27.985Z,19.0
2017-09-07T08:13:29.682Z,19.0
2017-09-07T08:14:31.415Z,19.0
2017-09-07T08:15:33.126Z,19.1
2017-09-07T08:16:34.816Z,19.0
2017-09-07T08:17:36.560Z,19.1
2017-09-07T08:18:38.300Z,19.1
2017-09-07T08:19:40.045Z,19.0
2017-09-07T08:20:41.762Z,19.1
2017-09-07T08:21:43.465Z,19.1
2017-09-07T08:22:45.374Z,19.1
2017-09-07T08:23:47.093Z,19.1
2017-09-07T08:24:48.776Z,19.2
2017-09-07T08:25:50.476Z,19.2
2017-09-07T08:26:52.203Z,19.2
2017-09-07T08:27:53.933Z,19.2
2017-09-07T08:28:55.633Z,19.3
2017-09-07T08:29:57.338Z,19.4
2017-09-07T08:30:59.068Z,19.4
2017-09-07T08:32:00.767Z,19.5
2017-09-07T08:33:02.466Z,19.7
2017-09-07T08:34:04.197Z,19.7
2017-09-07T08:35:05.897Z,19.6
2017-09-07T08:36:07.595Z,19.5
2017-09-07T08:37:09.303Z,19.7
2017-09-07T08:38:10.999Z,19.7
2017-09-07T08:39:12.696Z,19.9
2017-09-07T08:40:14.685Z,19.8
2017-09-07T08:41:16.386Z,19.9
2017-09-07T08:42:18.147Z,19.9
2017-09-07T08:43:19.865Z,20.0
2017-09-07T08:44:21.611Z,20.0
2017-09-07T08:45:23.343Z,19.8
2017-09-07T08:46:25.039Z,19.8
2017-09-07T08:47:26.761Z,19.9
2017-09-07T08:48:28.483Z,20.0
2017-09-07T08:49:30.181Z,20.1
2017-09-07T08:50:31.872Z,20.1
2017-09-07T08:51:33.570Z,20.1
2017-09-07T08:52:35.297Z,20.1
2017-09-07T08:53:40.612Z,20.2
2017-09-07T08:54:42.181Z,20.2
2017-09-07T08:55:43.891Z,20.2
2017-09-07T08:56:45.594Z,20.3
2017-09-07T08:57:47.288Z,20.4
2017-09-07T08:58:49.007Z,20.3
2017-09-07T08:59:50.723Z,20.4
2017-09-07T09:00:52.461Z,20.5
2017-09-07T09:01:54.190Z,20.4
2017-09-07T09:02:55.899Z,20.6
2017-09-07T09:03:57.619Z,20.6
2017-09-07T09:04:59.321Z,20.5
2017-09-07T09:06:01.039Z,20.5
2017-09-07T09:07:02.771Z,20.6
2017-09-07T09:08:04.449Z,20.5
2017-09-07T09:09:06.144Z,20.6
2017-09-07T09:10:07.871Z,20.6
2017-09-07T09:11:09.581Z,20.6
2017-09-07T09:12:11.291Z,20.6
2017-09-07T09:13:12.987Z,20.7
2017-09-07T09:14:14.691Z,20.8
2017-09-07T09:15:16.393Z,20.8
2017-09-07T09:16:18.080Z,20.8
2017-09-07T09:17:19.810Z,20.7
2017-09-07T09:18:21.522Z,20.8
2017-09-07T09:19:23.246Z,20.9
2017-09-07T09:20:24.944Z,20.9
2017-09-07T09:21:26.630Z,20.8
2017-09-07T09:22:28.321Z,20.7
2017-09-07T09:23:30.024Z,20.9
2017-09-07T09:24:31.743Z,21.0
2017-09-07T09:25:33.460Z,21.1
2017-09-07T09:26:35.175Z,21.1
2017-09-07T09:27:36.885Z,21.3
2017-09-07T09:28:38.617Z,21.3
2017-09-07T09:29:40.327Z,21.3
2017-09-07T09:30:42.051Z,21.3
2017-09-07T09:31:43.764Z,21.4
2017-09-07T09:32:45.478Z,21.4
2017-09-07T09:33:47.170Z,21.3
2017-09-07T09:34:48.881Z,21.5
2017-09-07T09:35:50.597Z,21.5
2017-09-07T09:36:52.606Z,21.6
2017-09-07T09:37:54.398Z,21.7
2017-09-07T09:38:56.210Z,21.8
2017-09-07T09:39:57.913Z,21.8
2017-09-07T09:40:59.628Z,21.8
2017-09-07T09:42:01.353Z,21.9
2017-09-07T09:43:03.039Z,22.0
2017-09-07T09:44:04.750Z,22.0
2017-09-07T09:45:06.451Z,22.0
2017-09-07T09:46:08.198Z,22.0
2017-09-07T09:47:09.903Z,22.0
2017-09-07T09:48:11.632Z,22.1
2017-09-07T09:49:13.351Z,22.1
2017-09-07T09:50:15.067Z,22.3
2017-09-07T09:51:16.790Z,22.3
2017-09-07T09:52:18.541Z,22.3
2017-09-07T09:53:20.260Z,22.3
2017-09-07T09:54:21.981Z,22.3
2017-09-07T09:55:23.701Z,22.2
2017-09-07T09:56:26.191Z,22.3
2017-09-07T09:57:27.880Z,22.4
2017-09-07T09:58:29.995Z,22.4
2017-09-07T09:59:31.724Z,22.6
2017-09-07T10:00:33.414Z,22.6
2017-09-07T10:01:35.617Z,22.6
2017-09-07T10:02:37.827Z,22.5
2017-09-07T10:03:40.395Z,22.7
2017-09-07T10:04:42.601Z,22.8
2017-09-07T10:05:49.260Z,22.7
2017-09-07T10:06:50.795Z,22.8
2017-09-07T10:07:52.668Z,22.9
2017-09-07T10:08:54.550Z,22.9
2017-09-07T10:09:56.269Z,23.0
2017-09-07T10:10:58.159Z,22.9
2017-09-07T10:11:59.939Z,23.0
2017-09-07T10:13:01.746Z,23.3
2017-09-07T10:14:03.444Z,23.3
2017-09-07T10:15:05.170Z,23.4
2017-09-07T10:16:06.866Z,23.4
2017-09-07T10:17:08.588Z,23.5
2017-09-07T10:18:10.309Z,23.5
2017-09-07T10:19:12.005Z,23.4
2017-09-07T10:20:13.721Z,23.5
2017-09-07T10:21:15.437Z,23.4
2017-09-07T10:22:17.144Z,23.5
2017-09-07T10:23:18.854Z,23.6
2017-09-07T10:24:20.540Z,23.7
2017-09-07T10:25:22.237Z,23.7
2017-09-07T10:26:23.946Z,23.8
2017-09-07T10:27:25.657Z,23.8
2017-09-07T10:28:27.369Z,23.9
2017-09-07T10:29:29.103Z,23.9
2017-09-07T10:30:30.795Z,24.0
2017-09-07T10:31:32.505Z,24.2
2017-09-07T10:32:34.193Z,24.3
2017-09-07T10:33:35.910Z,24.2
2017-09-07T10:34:37.612Z,24.2
2017-09-07T10:35:39.322Z,24.2
2017-09-07T10:36:41.015Z,24.3
2017-09-07T10:37:42.725Z,24.2
2017-09-07T10:38:44.438Z,24.0
2017-09-07T10:39:46.221Z,24.2
2017-09-07T10:40:47.944Z,24.3
2017-09-07T10:41:49.671Z,24.4
2017-09-07T10:42:51.366Z,24.0
2017-09-07T10:43:53.075Z,24.1
2017-09-07T10:44:54.760Z,23.9
2017-09-07T10:45:56.485Z,24.2
2017-09-07T10:46:58.186Z,24.3
2017-09-07T10:47:59.888Z,24.3
2017-09-07T10:49:01.592Z,24.3
2017-09-07T10:50:03.304Z,24.3
2017-09-07T10:51:05.028Z,24.2
2017-09-07T10:52:06.754Z,24.2
2017-09-07T10:53:08.468Z,24.2
2017-09-07T10:54:10.165Z,24.2
2017-09-07T10:55:11.871Z,24.1
2017-09-07T10:56:13.575Z,24.4
2017-09-07T10:57:15.269Z,24.2
2017-09-07T10:58:17.009Z,24.1
2017-09-07T10:59:18.710Z,24.1
2017-09-07T11:00:20.435Z,24.3
2017-09-07T11:01:22.144Z,24.4
2017-09-07T11:02:23.901Z,24.2
2017-09-07T11:03:25.624Z,24.2
2017-09-07T11:04:27.343Z,24.3
2017-09-07T11:05:29.035Z,24.3
2017-09-07T11:06:30.734Z,24.5
2017-09-07T11:07:32.447Z,24.4
2017-09-07T11:08:34.156Z,24.6
2017-09-07T11:09:35.906Z,24.7
2017-09-07T11:10:37.637Z,24.8
2017-09-07T11:11:40.300Z,24.7
2017-09-07T11:12:41.990Z,24.4
2017-09-07T11:13:43.701Z,24.5
2017-09-07T11:14:45.389Z,24.7
2017-09-07T11:15:47.100Z,24.5
2017-09-07T11:16:48.815Z,24.8
2017-09-07T11:17:50.507Z,24.7
2017-09-07T11:18:52.223Z,24.4
2017-09-07T11:19:53.937Z,24.6
2017-09-07T11:20:55.637Z,24.8
2017-09-07T11:21:57.359Z,24.8
2017-09-07T11:22:59.057Z,24.6
2017-09-07T11:24:00.760Z,24.7
2017-09-07T11:25:02.453Z,24.8
2017-09-07T11:26:04.169Z,24.9
2017-09-07T11:27:05.883Z,25.0
2017-09-07T11:28:07.587Z,25.1
2017-09-07T11:29:09.312Z,25.0
2017-09-07T11:30:11.028Z,24.8
2017-09-07T11:31:12.747Z,24.9
2017-09-07T11:32:14.445Z,25.0
2017-09-07T11:33:16.163Z,25.0
2017-09-07T11:34:17.866Z,24.5
2017-09-07T11:35:19.579Z,24.6
2017-09-07T11:36:21.282Z,24.8
2017-09-07T11:37:22.993Z,25.0
2017-09-07T11:38:24.707Z,24.9
2017-09-07T11:39:26.439Z,25.3
2017-09-07T11:40:28.157Z,25.1
2017-09-07T11:41:29.862Z,25.7
2017-09-07T11:42:31.599Z,26.2
2017-09-07T11:43:33.320Z,26.2
2017-09-07T11:44:35.035Z,26.6
2017-09-07T11:45:36.781Z,26.3
2017-09-07T11:46:38.503Z,27.0
2017-09-07T11:47:40.218Z,27.4
2017-09-07T11:48:41.918Z,27.3
2017-09-07T11:49:43.645Z,27.2
2017-09-07T11:50:45.350Z,27.4
2017-09-07T11:51:47.086Z,27.4
2017-09-07T11:52:48.811Z,27.7
2017-09-07T11:53:50.560Z,27.6
2017-09-07T11:54:52.270Z,27.8
2017-09-07T11:55:53.992Z,27.8
2017-09-07T11:56:55.708Z,27.9
2017-09-07T11:57:57.448Z,27.9
2017-09-07T11:58:59.190Z,28.1
2017-09-07T12:00:00.910Z,27.8
2017-09-07T12:01:02.636Z,27.7
2017-09-07T12:02:04.386Z,28.0
2017-09-07T12:03:06.133Z,28.3
2017-09-07T12:04:07.872Z,27.9
2017-09-07T12:05:09.591Z,27.9
2017-09-07T12:06:11.317Z,27.2
2017-09-07T12:07:13.025Z,27.4
2017-09-07T12:08:14.749Z,27.7
2017-09-07T12:09:16.460Z,27.9
2017-09-07T12:10:18.191Z,27.8
2017-09-07T12:11:19.895Z,28.0
2017-09-07T12:12:21.628Z,27.9
2017-09-07T12:13:23.348Z,27.5
2017-09-07T12:14:25.069Z,27.5
2017-09-07T12:15:42.794Z,27.2
2017-09-07T12:17:43.783Z,27.2
2017-09-07T12:18:45.555Z,27.0
2017-09-07T12:19:47.315Z,26.9
2017-09-07T12:20:49.045Z,26.6
2017-09-07T12:21:50.959Z,26.8
2017-09-07T12:22:52.730Z,27.1
2017-09-07T12:23:54.476Z,26.9
2017-09-07T12:24:56.323Z,26.9
2017-09-07T12:25:58.087Z,27.2
2017-09-07T12:26:59.821Z,27.3
2017-09-07T12:28:01.639Z,27.1
2017-09-07T12:29:19.152Z,26.7
2017-09-07T12:30:20.826Z,26.8
2017-09-07T12:31:22.554Z,26.9
2017-09-07T12:32:24.259Z,26.6
2017-09-07T12:33:25.975Z,26.8
2017-09-07T12:34:27.726Z,26.6
2017-09-07T12:35:29.472Z,27.2
2017-09-07T12:36:31.195Z,27.7
2017-09-07T12:37:32.905Z,27.6
2017-09-07T12:38:34.641Z,27.2
2017-09-07T12:39:36.365Z,27.4
2017-09-07T12:40:38.105Z,27.3
2017-09-07T12:41:39.851Z,27.3
2017-09-07T12:42:41.572Z,27.0
2017-09-07T12:43:43.311Z,26.8
2017-09-07T12:44:45.403Z,26.7
2017-09-07T12:45:47.949Z,26.9
2017-09-07T12:46:50.244Z,26.4
2017-09-07T12:47:52.008Z,26.3
2017-09-07T12:48:53.772Z,26.2
2017-09-07T12:49:55.553Z,27.0
2017-09-07T12:50:57.286Z,27.5
2017-09-07T12:51:59.014Z,27.3
2017-09-07T12:53:01.343Z,26.9
2017-09-07T12:54:03.128Z,26.4
2017-09-07T12:55:04.851Z,26.7
2017-09-07T12:56:06.644Z,27.3
2017-09-07T12:57:08.371Z,27.2
2017-09-07T12:58:10.099Z,27.3
2017-09-07T12:59:11.853Z,26.7
2017-09-07T13:00:13.610Z,26.5
2017-09-07T13:01:15.345Z,26.5
2017-09-07T13:02:17.075Z,26.6
2017-09-07T13:03:18.811Z,27.2
2017-09-07T13:04:20.514Z,26.8
2017-09-07T13:05:22.261Z,27.2
2017-09-07T13:06:24.022Z,26.6
2017-09-07T13:07:25.771Z,26.5
2017-09-07T13:08:27.520Z,26.7
2017-09-07T13:09:29.268Z,26.8
2017-09-07T13:10:31.006Z,27.1
2017-09-07T13:11:32.754Z,27.1
2017-09-07T13:12:34.482Z,27.1
2017-09-07T13:13:36.217Z,27.0
2017-09-07T13:14:37.961Z,26.9
2017-09-07T13:15:39.812Z,26.3
2017-09-07T13:16:41.565Z,26.5
2017-09-07T13:17:43.341Z,26.3
2017-09-07T13:18:45.063Z,26.4
2017-09-07T13:19:46.794Z,26.4
2017-09-07T13:20:48.589Z,26.9
2017-09-07T13:21:50.321Z,27.0
2017-09-07T13:22:52.078Z,26.6
2017-09-07T13:23:53.821Z,26.6
2017-09-07T13:24:55.528Z,26.4
2017-09-07T13:25:57.310Z,26.1
2017-09-07T13:26:59.033Z,26.1
2017-09-07T13:28:00.844Z,26.5
2017-09-07T13:29:02.632Z,26.4
2017-09-07T13:30:04.373Z,26.5
2017-09-07T13:31:06.134Z,26.5
2017-09-07T13:32:07.872Z,26.4
2017-09-07T13:33:09.598Z,26.4
2017-09-07T13:34:11.370Z,26.6
2017-09-07T13:35:13.121Z,26.3
2017-09-07T13:36:14.850Z,26.3
2017-09-07T13:37:16.618Z,26.0
2017-09-07T13:38:18.346Z,26.4
2017-09-07T13:39:20.083Z,26.8
2017-09-07T13:40:21.812Z,27.3
2017-09-07T13:41:23.538Z,27.3
2017-09-07T13:42:25.351Z,27.0
2017-09-07T13:43:27.116Z,27.5